ハルビン の空港の天気 - METARとTAF

ハルビン太平国際空港 ( ZYHB / HRB ) - 中華人民共和国 黒竜江省ハルビン市
飛行場実況気象(Metar)
観測時間04/26 00:00 CST (04/25 16:00 UTC)
風向・風速西南西 3m/s
視程10km以上
天気現象
なし
気温4℃
湿度75%
気圧1014hPa
METARZYHB 251600Z 25003MPS CAVOK 04/00 Q1014 NOSIG
過去の天気等 Google飛行場航空写真 Wunderground天気予報

過去48時間のMETAR

飛行場予報(TAF)
発表時間: 4/25 17:05 CST (4/25 09:05 UTC)
予報対象時間: 25日20時 CST ~ 26日20時 CST
風向・風速西南西 4m/s
視程6,000m
全天の4割程度の雲 雲底高度 790m
26日7時 CST ~ 26日8時 CST に徐々に
風向・風速北西 6m/s 瞬間風速 13m/s
TAF ZYHB 250905Z 2512/2612 25004MPS 6000 SCT026 TX13/2606Z TN01/2521Z
BECMG 2523/2524 32006G13MPS